sensor_id;sensor_type;location;lat;lon;timestamp;P1;durP1;ratioP1;P2;durP2;ratioP2
52380;SDS011;38310;52.796;6.942;2023-09-19T00:01:33;9.27;;;2.85;;
52380;SDS011;38310;52.796;6.942;2023-09-19T00:03:59;5.18;;;1.98;;
52380;SDS011;38310;52.796;6.942;2023-09-19T00:06:28;4.85;;;2.03;;
52380;SDS011;38310;52.796;6.942;2023-09-19T00:08:56;4.63;;;1.73;;
52380;SDS011;38310;52.796;6.942;2023-09-19T00:11:25;6.40;;;1.65;;
52380;SDS011;38310;52.796;6.942;2023-09-19T00:13:52;4.30;;;1.73;;
52380;SDS011;38310;52.796;6.942;2023-09-19T00:16:18;5.25;;;1.65;;
52380;SDS011;38310;52.796;6.942;2023-09-19T00:18:44;5.40;;;1.60;;
52380;SDS011;38310;52.796;6.942;2023-09-19T00:21:10;5.78;;;1.60;;
52380;SDS011;38310;52.796;6.942;2023-09-19T00:23:36;4.85;;;1.70;;
52380;SDS011;38310;52.796;6.942;2023-09-19T00:26:02;5.53;;;1.95;;
52380;SDS011;38310;52.796;6.942;2023-09-19T00:28:29;5.55;;;1.88;;
52380;SDS011;38310;52.796;6.942;2023-09-19T00:30:55;5.60;;;1.60;;
52380;SDS011;38310;52.796;6.942;2023-09-19T00:33:24;5.07;;;2.00;;
52380;SDS011;38310;52.796;6.942;2023-09-19T00:35:53;4.53;;;2.03;;
52380;SDS011;38310;52.796;6.942;2023-09-19T00:38:21;3.75;;;1.48;;
52380;SDS011;38310;52.796;6.942;2023-09-19T00:40:50;5.00;;;2.03;;
52380;SDS011;38310;52.796;6.942;2023-09-19T00:43:21;4.18;;;1.80;;
52380;SDS011;38310;52.796;6.942;2023-09-19T00:45:50;5.60;;;2.30;;
52380;SDS011;38310;52.796;6.942;2023-09-19T00:48:17;6.28;;;2.00;;
52380;SDS011;38310;52.796;6.942;2023-09-19T00:50:44;5.53;;;2.30;;
52380;SDS011;38310;52.796;6.942;2023-09-19T00:53:13;6.18;;;2.60;;
52380;SDS011;38310;52.796;6.942;2023-09-19T00:55:43;8.07;;;3.33;;
52380;SDS011;38310;52.796;6.942;2023-09-19T00:58:10;6.82;;;2.95;;
52380;SDS011;38310;52.796;6.942;2023-09-19T01:00:36;7.35;;;3.30;;
52380;SDS011;38310;52.796;6.942;2023-09-19T01:03:03;7.22;;;3.10;;
52380;SDS011;38310;52.796;6.942;2023-09-19T01:05:31;10.02;;;2.95;;
52380;SDS011;38310;52.796;6.942;2023-09-19T01:07:58;6.63;;;3.15;;
52380;SDS011;38310;52.796;6.942;2023-09-19T01:10:24;7.95;;;2.85;;
52380;SDS011;38310;52.796;6.942;2023-09-19T01:12:54;7.28;;;3.38;;
52380;SDS011;38310;52.796;6.942;2023-09-19T01:20:40;11.20;;;3.70;;
52380;SDS011;38310;52.796;6.942;2023-09-19T01:28:54;11.35;;;3.60;;
52380;SDS011;38310;52.796;6.942;2023-09-19T01:31:33;8.65;;;3.38;;
52380;SDS011;38310;52.796;6.942;2023-09-19T01:34:02;10.95;;;3.50;;
52380;SDS011;38310;52.796;6.942;2023-09-19T01:36:35;9.82;;;3.47;;
52380;SDS011;38310;52.796;6.942;2023-09-19T01:39:10;8.93;;;3.65;;
52380;SDS011;38310;52.796;6.942;2023-09-19T01:44:09;9.25;;;3.20;;
52380;SDS011;38310;52.796;6.942;2023-09-19T01:46:43;9.75;;;3.50;;
52380;SDS011;38310;52.796;6.942;2023-09-19T01:51:56;10.65;;;3.60;;
52380;SDS011;38310;52.796;6.942;2023-09-19T01:54:40;9.75;;;3.75;;
52380;SDS011;38310;52.796;6.942;2023-09-19T01:57:23;10.20;;;3.80;;
52380;SDS011;38310;52.796;6.942;2023-09-19T02:00:02;11.45;;;4.00;;
52380;SDS011;38310;52.796;6.942;2023-09-19T02:02:35;10.52;;;4.60;;
52380;SDS011;38310;52.796;6.942;2023-09-19T02:05:03;11.07;;;3.72;;
52380;SDS011;38310;52.796;6.942;2023-09-19T02:07:29;11.55;;;4.30;;
52380;SDS011;38310;52.796;6.942;2023-09-19T02:10:00;11.48;;;4.18;;
52380;SDS011;38310;52.796;6.942;2023-09-19T02:12:28;11.25;;;3.75;;
52380;SDS011;38310;52.796;6.942;2023-09-19T02:14:55;10.52;;;4.03;;
52380;SDS011;38310;52.796;6.942;2023-09-19T02:17:22;7.43;;;3.50;;
52380;SDS011;38310;52.796;6.942;2023-09-19T02:19:55;9.38;;;3.72;;
52380;SDS011;38310;52.796;6.942;2023-09-19T02:22:21;9.75;;;3.75;;
52380;SDS011;38310;52.796;6.942;2023-09-19T02:24:47;9.13;;;3.67;;
52380;SDS011;38310;52.796;6.942;2023-09-19T02:27:13;11.15;;;3.55;;
52380;SDS011;38310;52.796;6.942;2023-09-19T02:29:43;10.25;;;3.67;;
52380;SDS011;38310;52.796;6.942;2023-09-19T02:32:09;12.05;;;3.50;;
52380;SDS011;38310;52.796;6.942;2023-09-19T02:34:36;9.65;;;3.50;;
52380;SDS011;38310;52.796;6.942;2023-09-19T02:37:03;8.68;;;3.60;;
52380;SDS011;38310;52.796;6.942;2023-09-19T02:39:30;7.60;;;3.42;;
52380;SDS011;38310;52.796;6.942;2023-09-19T02:41:56;6.78;;;3.00;;
52380;SDS011;38310;52.796;6.942;2023-09-19T02:44:22;8.68;;;3.45;;
52380;SDS011;38310;52.796;6.942;2023-09-19T02:46:49;8.90;;;3.53;;
52380;SDS011;38310;52.796;6.942;2023-09-19T02:49:15;10.35;;;3.67;;
52380;SDS011;38310;52.796;6.942;2023-09-19T02:51:42;11.88;;;3.08;;
52380;SDS011;38310;52.796;6.942;2023-09-19T02:54:09;9.60;;;3.35;;
52380;SDS011;38310;52.796;6.942;2023-09-19T02:56:35;8.65;;;3.42;;
52380;SDS011;38310;52.796;6.942;2023-09-19T02:59:01;11.07;;;3.55;;
52380;SDS011;38310;52.796;6.942;2023-09-19T03:01:27;11.50;;;3.22;;
52380;SDS011;38310;52.796;6.942;2023-09-19T03:03:54;10.13;;;3.78;;
52380;SDS011;38310;52.796;6.942;2023-09-19T03:06:20;4.95;;;3.05;;
52380;SDS011;38310;52.796;6.942;2023-09-19T03:08:46;12.82;;;3.97;;
52380;SDS011;38310;52.796;6.942;2023-09-19T03:11:14;8.18;;;3.22;;
52380;SDS011;38310;52.796;6.942;2023-09-19T03:13:43;7.85;;;3.05;;
52380;SDS011;38310;52.796;6.942;2023-09-19T03:16:10;9.35;;;3.63;;
52380;SDS011;38310;52.796;6.942;2023-09-19T03:18:36;6.55;;;3.20;;
52380;SDS011;38310;52.796;6.942;2023-09-19T03:21:02;7.35;;;3.45;;
52380;SDS011;38310;52.796;6.942;2023-09-19T03:23:28;6.82;;;3.00;;
52380;SDS011;38310;52.796;6.942;2023-09-19T03:25:54;9.75;;;3.40;;
52380;SDS011;38310;52.796;6.942;2023-09-19T03:28:21;10.38;;;3.38;;
52380;SDS011;38310;52.796;6.942;2023-09-19T03:31:01;6.43;;;3.22;;
52380;SDS011;38310;52.796;6.942;2023-09-19T03:33:28;8.45;;;3.63;;
52380;SDS011;38310;52.796;6.942;2023-09-19T03:35:53;8.20;;;2.95;;
52380;SDS011;38310;52.796;6.942;2023-09-19T03:38:20;9.45;;;2.97;;
52380;SDS011;38310;52.796;6.942;2023-09-19T03:40:47;11.13;;;3.00;;
52380;SDS011;38310;52.796;6.942;2023-09-19T03:43:14;7.45;;;2.70;;
52380;SDS011;38310;52.796;6.942;2023-09-19T03:45:40;7.85;;;2.78;;
52380;SDS011;38310;52.796;6.942;2023-09-19T03:48:09;10.00;;;3.28;;
52380;SDS011;38310;52.796;6.942;2023-09-19T03:50:35;12.48;;;3.00;;
52380;SDS011;38310;52.796;6.942;2023-09-19T03:53:01;7.32;;;3.30;;
52380;SDS011;38310;52.796;6.942;2023-09-19T03:55:28;5.65;;;2.80;;
52380;SDS011;38310;52.796;6.942;2023-09-19T03:57:57;9.55;;;3.38;;
52380;SDS011;38310;52.796;6.942;2023-09-19T04:00:23;10.38;;;3.08;;
52380;SDS011;38310;52.796;6.942;2023-09-19T04:02:52;7.55;;;3.60;;
52380;SDS011;38310;52.796;6.942;2023-09-19T04:05:18;6.40;;;3.35;;
52380;SDS011;38310;52.796;6.942;2023-09-19T04:07:44;9.05;;;3.28;;
52380;SDS011;38310;52.796;6.942;2023-09-19T04:10:10;9.93;;;3.53;;
52380;SDS011;38310;52.796;6.942;2023-09-19T04:12:40;8.48;;;3.40;;
52380;SDS011;38310;52.796;6.942;2023-09-19T04:15:06;8.88;;;4.20;;
52380;SDS011;38310;52.796;6.942;2023-09-19T04:17:33;10.05;;;3.50;;
52380;SDS011;38310;52.796;6.942;2023-09-19T04:19:59;10.20;;;3.20;;
52380;SDS011;38310;52.796;6.942;2023-09-19T04:22:25;10.80;;;3.80;;
52380;SDS011;38310;52.796;6.942;2023-09-19T04:24:51;10.43;;;3.78;;
52380;SDS011;38310;52.796;6.942;2023-09-19T04:27:16;11.13;;;4.07;;
52380;SDS011;38310;52.796;6.942;2023-09-19T04:29:44;9.23;;;3.80;;
52380;SDS011;38310;52.796;6.942;2023-09-19T04:32:10;8.82;;;4.10;;
52380;SDS011;38310;52.796;6.942;2023-09-19T04:34:35;11.55;;;3.95;;
52380;SDS011;38310;52.796;6.942;2023-09-19T04:37:03;15.30;;;4.35;;
52380;SDS011;38310;52.796;6.942;2023-09-19T04:39:29;13.32;;;4.45;;
52380;SDS011;38310;52.796;6.942;2023-09-19T04:41:55;11.05;;;5.03;;
52380;SDS011;38310;52.796;6.942;2023-09-19T04:44:22;8.60;;;3.88;;
52380;SDS011;38310;52.796;6.942;2023-09-19T04:46:47;12.27;;;3.65;;
52380;SDS011;38310;52.796;6.942;2023-09-19T04:49:13;11.68;;;3.85;;
52380;SDS011;38310;52.796;6.942;2023-09-19T04:51:39;12.18;;;3.90;;
52380;SDS011;38310;52.796;6.942;2023-09-19T04:54:05;13.02;;;3.72;;
52380;SDS011;38310;52.796;6.942;2023-09-19T04:56:31;18.10;;;4.43;;
52380;SDS011;38310;52.796;6.942;2023-09-19T04:58:58;9.40;;;3.20;;
52380;SDS011;38310;52.796;6.942;2023-09-19T05:01:24;14.63;;;4.43;;
52380;SDS011;38310;52.796;6.942;2023-09-19T05:03:50;10.38;;;3.70;;
52380;SDS011;38310;52.796;6.942;2023-09-19T05:06:19;11.65;;;3.67;;
52380;SDS011;38310;52.796;6.942;2023-09-19T05:08:48;10.20;;;4.00;;
52380;SDS011;38310;52.796;6.942;2023-09-19T05:11:20;13.23;;;3.85;;
52380;SDS011;38310;52.796;6.942;2023-09-19T05:13:48;12.88;;;3.97;;
52380;SDS011;38310;52.796;6.942;2023-09-19T05:16:21;10.18;;;3.40;;
52380;SDS011;38310;52.796;6.942;2023-09-19T05:18:47;11.38;;;3.80;;
52380;SDS011;38310;52.796;6.942;2023-09-19T05:21:12;11.30;;;4.35;;
52380;SDS011;38310;52.796;6.942;2023-09-19T05:23:38;13.60;;;3.88;;
52380;SDS011;38310;52.796;6.942;2023-09-19T05:26:04;11.43;;;3.97;;
52380;SDS011;38310;52.796;6.942;2023-09-19T05:28:30;16.88;;;4.10;;
52380;SDS011;38310;52.796;6.942;2023-09-19T05:30:59;12.73;;;4.10;;
52380;SDS011;38310;52.796;6.942;2023-09-19T05:33:27;9.48;;;3.83;;
52380;SDS011;38310;52.796;6.942;2023-09-19T05:35:53;9.93;;;3.58;;
52380;SDS011;38310;52.796;6.942;2023-09-19T05:38:19;8.45;;;3.97;;
52380;SDS011;38310;52.796;6.942;2023-09-19T05:40:45;12.48;;;3.88;;
52380;SDS011;38310;52.796;6.942;2023-09-19T05:43:11;11.95;;;3.83;;
52380;SDS011;38310;52.796;6.942;2023-09-19T05:45:39;15.27;;;4.15;;
52380;SDS011;38310;52.796;6.942;2023-09-19T05:48:12;9.13;;;3.72;;
52380;SDS011;38310;52.796;6.942;2023-09-19T05:50:39;9.10;;;3.20;;
52380;SDS011;38310;52.796;6.942;2023-09-19T05:53:05;12.00;;;4.10;;
52380;SDS011;38310;52.796;6.942;2023-09-19T05:55:31;11.25;;;3.38;;
52380;SDS011;38310;52.796;6.942;2023-09-19T05:57:58;9.38;;;3.58;;
52380;SDS011;38310;52.796;6.942;2023-09-19T06:00:24;10.13;;;3.63;;
52380;SDS011;38310;52.796;6.942;2023-09-19T06:02:55;15.30;;;3.67;;
52380;SDS011;38310;52.796;6.942;2023-09-19T06:05:22;11.90;;;3.63;;
52380;SDS011;38310;52.796;6.942;2023-09-19T06:07:49;10.43;;;3.55;;
52380;SDS011;38310;52.796;6.942;2023-09-19T06:10:17;15.00;;;4.22;;
52380;SDS011;38310;52.796;6.942;2023-09-19T06:12:46;9.82;;;3.67;;
52380;SDS011;38310;52.796;6.942;2023-09-19T06:15:13;14.75;;;4.05;;
52380;SDS011;38310;52.796;6.942;2023-09-19T06:17:50;11.48;;;3.70;;
52380;SDS011;38310;52.796;6.942;2023-09-19T06:20:21;11.15;;;3.25;;
52380;SDS011;38310;52.796;6.942;2023-09-19T06:22:48;12.60;;;4.05;;
52380;SDS011;38310;52.796;6.942;2023-09-19T06:25:15;11.85;;;4.03;;
52380;SDS011;38310;52.796;6.942;2023-09-19T06:27:49;11.80;;;3.70;;
52380;SDS011;38310;52.796;6.942;2023-09-19T06:30:18;14.38;;;4.28;;
52380;SDS011;38310;52.796;6.942;2023-09-19T06:32:45;12.38;;;3.47;;
52380;SDS011;38310;52.796;6.942;2023-09-19T06:35:14;10.55;;;3.80;;
52380;SDS011;38310;52.796;6.942;2023-09-19T06:37:41;9.75;;;3.70;;
52380;SDS011;38310;52.796;6.942;2023-09-19T06:40:08;10.75;;;3.67;;
52380;SDS011;38310;52.796;6.942;2023-09-19T06:42:46;9.43;;;3.42;;
52380;SDS011;38310;52.796;6.942;2023-09-19T06:45:15;9.38;;;3.33;;
52380;SDS011;38310;52.796;6.942;2023-09-19T06:47:44;8.38;;;3.47;;
52380;SDS011;38310;52.796;6.942;2023-09-19T06:50:11;7.78;;;3.22;;
52380;SDS011;38310;52.796;6.942;2023-09-19T06:52:40;13.02;;;3.63;;
52380;SDS011;38310;52.796;6.942;2023-09-19T06:55:06;13.43;;;4.20;;
52380;SDS011;38310;52.796;6.942;2023-09-19T06:57:32;11.80;;;4.15;;
52380;SDS011;38310;52.796;6.942;2023-09-19T06:59:58;10.25;;;3.60;;
52380;SDS011;38310;52.796;6.942;2023-09-19T07:02:26;11.13;;;3.78;;
52380;SDS011;38310;52.796;6.942;2023-09-19T07:04:52;11.20;;;3.42;;
52380;SDS011;38310;52.796;6.942;2023-09-19T07:07:18;8.68;;;3.35;;
52380;SDS011;38310;52.796;6.942;2023-09-19T07:09:43;12.57;;;3.55;;
52380;SDS011;38310;52.796;6.942;2023-09-19T07:12:09;13.65;;;3.60;;
52380;SDS011;38310;52.796;6.942;2023-09-19T07:14:37;8.07;;;3.00;;
52380;SDS011;38310;52.796;6.942;2023-09-19T07:17:02;11.25;;;3.53;;
52380;SDS011;38310;52.796;6.942;2023-09-19T07:19:29;7.00;;;3.30;;
52380;SDS011;38310;52.796;6.942;2023-09-19T07:21:56;9.23;;;3.55;;
52380;SDS011;38310;52.796;6.942;2023-09-19T07:24:24;9.23;;;3.45;;
52380;SDS011;38310;52.796;6.942;2023-09-19T07:26:52;11.90;;;4.00;;
52380;SDS011;38310;52.796;6.942;2023-09-19T07:29:18;13.20;;;3.45;;
52380;SDS011;38310;52.796;6.942;2023-09-19T07:31:44;11.88;;;3.40;;
52380;SDS011;38310;52.796;6.942;2023-09-19T07:34:09;14.02;;;3.53;;
52380;SDS011;38310;52.796;6.942;2023-09-19T07:36:35;15.30;;;3.83;;
52380;SDS011;38310;52.796;6.942;2023-09-19T07:39:03;7.65;;;2.95;;
52380;SDS011;38310;52.796;6.942;2023-09-19T07:41:32;8.43;;;3.10;;
52380;SDS011;38310;52.796;6.942;2023-09-19T07:43:58;10.20;;;3.72;;
52380;SDS011;38310;52.796;6.942;2023-09-19T07:46:24;13.23;;;3.78;;
52380;SDS011;38310;52.796;6.942;2023-09-19T07:48:51;9.98;;;3.38;;
52380;SDS011;38310;52.796;6.942;2023-09-19T07:51:17;11.23;;;3.63;;
52380;SDS011;38310;52.796;6.942;2023-09-19T07:53:43;11.43;;;3.38;;
52380;SDS011;38310;52.796;6.942;2023-09-19T07:56:09;11.32;;;3.20;;
52380;SDS011;38310;52.796;6.942;2023-09-19T07:58:35;9.80;;;3.17;;
52380;SDS011;38310;52.796;6.942;2023-09-19T08:01:04;12.80;;;3.40;;
52380;SDS011;38310;52.796;6.942;2023-09-19T08:03:31;10.65;;;3.25;;
52380;SDS011;38310;52.796;6.942;2023-09-19T08:08:30;7.38;;;3.10;;
52380;SDS011;38310;52.796;6.942;2023-09-19T08:10:56;10.25;;;3.20;;
52380;SDS011;38310;52.796;6.942;2023-09-19T08:13:25;9.45;;;3.30;;
52380;SDS011;38310;52.796;6.942;2023-09-19T08:15:51;9.38;;;3.33;;
52380;SDS011;38310;52.796;6.942;2023-09-19T08:18:20;12.25;;;3.65;;
52380;SDS011;38310;52.796;6.942;2023-09-19T08:20:49;9.50;;;3.20;;
52380;SDS011;38310;52.796;6.942;2023-09-19T08:23:16;11.45;;;3.10;;
52380;SDS011;38310;52.796;6.942;2023-09-19T08:25:45;11.18;;;3.38;;
52380;SDS011;38310;52.796;6.942;2023-09-19T08:28:11;11.32;;;3.72;;
52380;SDS011;38310;52.796;6.942;2023-09-19T08:30:39;11.57;;;3.80;;
52380;SDS011;38310;52.796;6.942;2023-09-19T08:33:06;12.48;;;3.70;;
52380;SDS011;38310;52.796;6.942;2023-09-19T08:35:32;13.68;;;3.58;;
52380;SDS011;38310;52.796;6.942;2023-09-19T08:37:58;11.02;;;3.58;;
52380;SDS011;38310;52.796;6.942;2023-09-19T08:40:29;10.63;;;3.33;;
52380;SDS011;38310;52.796;6.942;2023-09-19T08:42:58;9.27;;;3.47;;
52380;SDS011;38310;52.796;6.942;2023-09-19T08:45:26;12.57;;;3.40;;
52380;SDS011;38310;52.796;6.942;2023-09-19T08:50:37;10.90;;;3.45;;
52380;SDS011;38310;52.796;6.942;2023-09-19T08:53:13;9.98;;;3.58;;
52380;SDS011;38310;52.796;6.942;2023-09-19T08:55:47;11.27;;;4.20;;
52380;SDS011;38310;52.796;6.942;2023-09-19T08:58:16;10.88;;;3.40;;
52380;SDS011;38310;52.796;6.942;2023-09-19T09:00:47;9.95;;;2.95;;
52380;SDS011;38310;52.796;6.942;2023-09-19T09:03:16;14.52;;;3.80;;
52380;SDS011;38310;52.796;6.942;2023-09-19T09:05:45;11.07;;;4.03;;
52380;SDS011;38310;52.796;6.942;2023-09-19T09:08:12;18.85;;;3.92;;
52380;SDS011;38310;52.796;6.942;2023-09-19T09:10:39;13.13;;;3.92;;
52380;SDS011;38310;52.796;6.942;2023-09-19T09:13:05;8.93;;;3.55;;
52380;SDS011;38310;52.796;6.942;2023-09-19T09:15:34;11.32;;;3.88;;
52380;SDS011;38310;52.796;6.942;2023-09-19T09:18:01;12.98;;;3.83;;
52380;SDS011;38310;52.796;6.942;2023-09-19T09:20:30;12.57;;;3.72;;
52380;SDS011;38310;52.796;6.942;2023-09-19T09:22:56;10.88;;;3.47;;
52380;SDS011;38310;52.796;6.942;2023-09-19T09:28:20;13.07;;;3.78;;
52380;SDS011;38310;52.796;6.942;2023-09-19T09:30:47;12.50;;;3.47;;
52380;SDS011;38310;52.796;6.942;2023-09-19T09:33:13;12.43;;;3.40;;
52380;SDS011;38310;52.796;6.942;2023-09-19T09:35:51;11.30;;;3.05;;
52380;SDS011;38310;52.796;6.942;2023-09-19T09:38:25;12.23;;;3.67;;
52380;SDS011;38310;52.796;6.942;2023-09-19T09:40:57;10.55;;;3.03;;
52380;SDS011;38310;52.796;6.942;2023-09-19T09:43:36;8.75;;;3.15;;
52380;SDS011;38310;52.796;6.942;2023-09-19T09:54:14;10.75;;;3.65;;
52380;SDS011;38310;52.796;6.942;2023-09-19T09:59:22;11.07;;;3.00;;
52380;SDS011;38310;52.796;6.942;2023-09-19T10:01:49;11.07;;;3.20;;
52380;SDS011;38310;52.796;6.942;2023-09-19T10:04:28;10.57;;;3.17;;
52380;SDS011;38310;52.796;6.942;2023-09-19T10:07:02;16.60;;;3.90;;
52380;SDS011;38310;52.796;6.942;2023-09-19T10:09:45;13.73;;;3.58;;
52380;SDS011;38310;52.796;6.942;2023-09-19T10:12:12;9.30;;;3.10;;
52380;SDS011;38310;52.796;6.942;2023-09-19T10:14:39;9.88;;;3.40;;
52380;SDS011;38310;52.796;6.942;2023-09-19T10:17:09;9.55;;;3.30;;
52380;SDS011;38310;52.796;6.942;2023-09-19T10:22:12;12.10;;;3.83;;
52380;SDS011;38310;52.796;6.942;2023-09-19T10:24:46;17.77;;;4.18;;
52380;SDS011;38310;52.796;6.942;2023-09-19T10:27:15;11.57;;;3.30;;
52380;SDS011;38310;52.796;6.942;2023-09-19T10:29:42;12.65;;;3.63;;
52380;SDS011;38310;52.796;6.942;2023-09-19T10:32:12;13.25;;;3.65;;
52380;SDS011;38310;52.796;6.942;2023-09-19T10:34:44;9.82;;;3.45;;
52380;SDS011;38310;52.796;6.942;2023-09-19T10:37:14;10.85;;;3.47;;
52380;SDS011;38310;52.796;6.942;2023-09-19T10:39:42;8.60;;;3.13;;
52380;SDS011;38310;52.796;6.942;2023-09-19T10:42:12;10.57;;;3.25;;
52380;SDS011;38310;52.796;6.942;2023-09-19T10:44:45;10.10;;;3.38;;
52380;SDS011;38310;52.796;6.942;2023-09-19T10:47:18;11.60;;;3.40;;
52380;SDS011;38310;52.796;6.942;2023-09-19T10:49:45;10.30;;;3.72;;
52380;SDS011;38310;52.796;6.942;2023-09-19T10:52:15;9.73;;;3.22;;
52380;SDS011;38310;52.796;6.942;2023-09-19T10:57:18;11.32;;;3.13;;
52380;SDS011;38310;52.796;6.942;2023-09-19T11:06:01;13.18;;;3.53;;
52380;SDS011;38310;52.796;6.942;2023-09-19T11:11:50;11.52;;;3.92;;
52380;SDS011;38310;52.796;6.942;2023-09-19T11:30:34;11.38;;;3.15;;
52380;SDS011;38310;52.796;6.942;2023-09-19T11:43:46;8.70;;;2.53;;
52380;SDS011;38310;52.796;6.942;2023-09-19T11:46:33;11.95;;;3.35;;
52380;SDS011;38310;52.796;6.942;2023-09-19T11:49:05;9.70;;;3.05;;
52380;SDS011;38310;52.796;6.942;2023-09-19T11:51:40;8.95;;;3.22;;
52380;SDS011;38310;52.796;6.942;2023-09-19T11:54:10;7.43;;;2.70;;
52380;SDS011;38310;52.796;6.942;2023-09-19T11:56:56;10.02;;;2.88;;
52380;SDS011;38310;52.796;6.942;2023-09-19T11:59:24;10.82;;;2.97;;
52380;SDS011;38310;52.796;6.942;2023-09-19T12:01:55;13.05;;;3.08;;
52380;SDS011;38310;52.796;6.942;2023-09-19T12:07:08;10.95;;;2.85;;
52380;SDS011;38310;52.796;6.942;2023-09-19T12:09:44;9.38;;;2.67;;
52380;SDS011;38310;52.796;6.942;2023-09-19T12:12:20;8.52;;;2.88;;
52380;SDS011;38310;52.796;6.942;2023-09-19T12:14:49;9.27;;;3.10;;
52380;SDS011;38310;52.796;6.942;2023-09-19T12:17:15;9.40;;;3.28;;
52380;SDS011;38310;52.796;6.942;2023-09-19T12:19:55;8.13;;;2.33;;
52380;SDS011;38310;52.796;6.942;2023-09-19T12:22:22;10.13;;;3.35;;
52380;SDS011;38310;52.796;6.942;2023-09-19T12:24:48;8.15;;;2.55;;
52380;SDS011;38310;52.796;6.942;2023-09-19T12:27:15;8.98;;;2.72;;
52380;SDS011;38310;52.796;6.942;2023-09-19T12:29:42;9.43;;;2.90;;
52380;SDS011;38310;52.796;6.942;2023-09-19T12:32:09;8.65;;;3.08;;
52380;SDS011;38310;52.796;6.942;2023-09-19T12:34:35;10.43;;;3.80;;
52380;SDS011;38310;52.796;6.942;2023-09-19T12:37:08;7.07;;;2.60;;
52380;SDS011;38310;52.796;6.942;2023-09-19T12:42:06;8.90;;;2.75;;
52380;SDS011;38310;52.796;6.942;2023-09-19T12:44:42;10.15;;;3.13;;
52380;SDS011;38310;52.796;6.942;2023-09-19T12:47:10;11.93;;;3.25;;
52380;SDS011;38310;52.796;6.942;2023-09-19T12:50:04;10.13;;;3.63;;
52380;SDS011;38310;52.796;6.942;2023-09-19T12:52:43;9.55;;;2.70;;
52380;SDS011;38310;52.796;6.942;2023-09-19T12:55:22;8.02;;;2.70;;
52380;SDS011;38310;52.796;6.942;2023-09-19T13:00:32;12.48;;;3.25;;
52380;SDS011;38310;52.796;6.942;2023-09-19T13:03:11;10.13;;;2.97;;
52380;SDS011;38310;52.796;6.942;2023-09-19T13:05:55;9.05;;;2.80;;
52380;SDS011;38310;52.796;6.942;2023-09-19T13:16:20;6.43;;;2.45;;
52380;SDS011;38310;52.796;6.942;2023-09-19T13:18:49;7.05;;;2.35;;
52380;SDS011;38310;52.796;6.942;2023-09-19T13:21:32;7.60;;;2.50;;
52380;SDS011;38310;52.796;6.942;2023-09-19T13:24:21;7.15;;;2.63;;
52380;SDS011;38310;52.796;6.942;2023-09-19T13:26:50;9.93;;;3.55;;
52380;SDS011;38310;52.796;6.942;2023-09-19T13:29:16;6.43;;;2.40;;
52380;SDS011;38310;52.796;6.942;2023-09-19T13:31:47;8.38;;;2.72;;
52380;SDS011;38310;52.796;6.942;2023-09-19T13:34:13;7.80;;;2.95;;
52380;SDS011;38310;52.796;6.942;2023-09-19T13:36:41;6.47;;;2.22;;
52380;SDS011;38310;52.796;6.942;2023-09-19T13:39:07;7.95;;;2.70;;
52380;SDS011;38310;52.796;6.942;2023-09-19T13:41:38;6.10;;;2.25;;
52380;SDS011;38310;52.796;6.942;2023-09-19T13:44:04;9.02;;;2.33;;
52380;SDS011;38310;52.796;6.942;2023-09-19T13:46:30;6.03;;;2.10;;
52380;SDS011;38310;52.796;6.942;2023-09-19T13:48:58;8.65;;;2.65;;
52380;SDS011;38310;52.796;6.942;2023-09-19T13:51:27;6.78;;;2.15;;
52380;SDS011;38310;52.796;6.942;2023-09-19T13:53:55;6.35;;;2.10;;
52380;SDS011;38310;52.796;6.942;2023-09-19T13:56:20;7.38;;;2.00;;
52380;SDS011;38310;52.796;6.942;2023-09-19T13:58:47;5.65;;;2.15;;
52380;SDS011;38310;52.796;6.942;2023-09-19T14:01:13;5.47;;;1.90;;
52380;SDS011;38310;52.796;6.942;2023-09-19T14:03:39;7.57;;;2.30;;
52380;SDS011;38310;52.796;6.942;2023-09-19T14:06:05;10.48;;;2.40;;
52380;SDS011;38310;52.796;6.942;2023-09-19T14:08:31;6.38;;;2.08;;
52380;SDS011;38310;52.796;6.942;2023-09-19T14:10:59;6.75;;;1.98;;
52380;SDS011;38310;52.796;6.942;2023-09-19T14:13:30;6.38;;;2.65;;
52380;SDS011;38310;52.796;6.942;2023-09-19T14:15:56;4.80;;;1.95;;
52380;SDS011;38310;52.796;6.942;2023-09-19T14:18:22;6.75;;;2.30;;
52380;SDS011;38310;52.796;6.942;2023-09-19T14:20:47;11.68;;;2.30;;
52380;SDS011;38310;52.796;6.942;2023-09-19T14:23:13;5.60;;;2.38;;
52380;SDS011;38310;52.796;6.942;2023-09-19T14:25:39;7.97;;;2.17;;
52380;SDS011;38310;52.796;6.942;2023-09-19T14:28:05;8.68;;;2.40;;
52380;SDS011;38310;52.796;6.942;2023-09-19T14:30:33;7.15;;;1.77;;
52380;SDS011;38310;52.796;6.942;2023-09-19T14:32:59;7.50;;;2.10;;
52380;SDS011;38310;52.796;6.942;2023-09-19T14:35:26;7.00;;;1.90;;
52380;SDS011;38310;52.796;6.942;2023-09-19T14:37:51;8.02;;;2.25;;
52380;SDS011;38310;52.796;6.942;2023-09-19T14:40:18;7.38;;;1.60;;
52380;SDS011;38310;52.796;6.942;2023-09-19T14:42:43;6.07;;;1.90;;
52380;SDS011;38310;52.796;6.942;2023-09-19T14:45:10;8.07;;;2.22;;
52380;SDS011;38310;52.796;6.942;2023-09-19T14:47:36;7.15;;;1.98;;
52380;SDS011;38310;52.796;6.942;2023-09-19T14:50:03;9.55;;;2.10;;
52380;SDS011;38310;52.796;6.942;2023-09-19T14:52:32;7.45;;;2.17;;
52380;SDS011;38310;52.796;6.942;2023-09-19T14:54:59;9.77;;;1.83;;
52380;SDS011;38310;52.796;6.942;2023-09-19T14:57:25;5.68;;;1.83;;
52380;SDS011;38310;52.796;6.942;2023-09-19T14:59:51;3.88;;;1.60;;
52380;SDS011;38310;52.796;6.942;2023-09-19T15:02:17;9.77;;;2.00;;
52380;SDS011;38310;52.796;6.942;2023-09-19T15:04:42;10.75;;;1.60;;
52380;SDS011;38310;52.796;6.942;2023-09-19T15:07:12;5.38;;;2.13;;
52380;SDS011;38310;52.796;6.942;2023-09-19T15:09:41;5.95;;;1.73;;
52380;SDS011;38310;52.796;6.942;2023-09-19T15:12:08;5.10;;;1.80;;
52380;SDS011;38310;52.796;6.942;2023-09-19T15:14:34;9.18;;;1.92;;
52380;SDS011;38310;52.796;6.942;2023-09-19T15:16:59;8.80;;;2.53;;
52380;SDS011;38310;52.796;6.942;2023-09-19T15:19:25;4.40;;;1.63;;
52380;SDS011;38310;52.796;6.942;2023-09-19T15:21:51;5.05;;;1.70;;
52380;SDS011;38310;52.796;6.942;2023-09-19T15:24:16;6.88;;;2.03;;
52380;SDS011;38310;52.796;6.942;2023-09-19T15:26:43;7.18;;;2.22;;
52380;SDS011;38310;52.796;6.942;2023-09-19T15:29:09;3.95;;;1.60;;
52380;SDS011;38310;52.796;6.942;2023-09-19T15:31:35;5.95;;;1.80;;
52380;SDS011;38310;52.796;6.942;2023-09-19T15:34:02;6.35;;;1.77;;
52380;SDS011;38310;52.796;6.942;2023-09-19T15:36:28;7.72;;;2.35;;
52380;SDS011;38310;52.796;6.942;2023-09-19T15:43:58;6.13;;;1.65;;
52380;SDS011;38310;52.796;6.942;2023-09-19T15:46:26;5.80;;;1.60;;
52380;SDS011;38310;52.796;6.942;2023-09-19T15:48:56;5.80;;;1.80;;
52380;SDS011;38310;52.796;6.942;2023-09-19T15:51:22;6.88;;;1.60;;
52380;SDS011;38310;52.796;6.942;2023-09-19T15:53:52;4.07;;;1.35;;
52380;SDS011;38310;52.796;6.942;2023-09-19T15:56:20;5.07;;;1.85;;
52380;SDS011;38310;52.796;6.942;2023-09-19T15:58:47;5.10;;;1.70;;
52380;SDS011;38310;52.796;6.942;2023-09-19T16:01:14;4.40;;;1.85;;
52380;SDS011;38310;52.796;6.942;2023-09-19T16:03:43;6.03;;;1.70;;
52380;SDS011;38310;52.796;6.942;2023-09-19T16:06:12;6.35;;;1.80;;
52380;SDS011;38310;52.796;6.942;2023-09-19T16:08:48;2.22;;;1.10;;
52380;SDS011;38310;52.796;6.942;2023-09-19T16:11:15;5.03;;;1.70;;
52380;SDS011;38310;52.796;6.942;2023-09-19T16:13:43;3.50;;;1.25;;
52380;SDS011;38310;52.796;6.942;2023-09-19T16:16:12;6.20;;;1.77;;
52380;SDS011;38310;52.796;6.942;2023-09-19T16:21:16;4.07;;;1.77;;
52380;SDS011;38310;52.796;6.942;2023-09-19T16:23:50;3.83;;;1.73;;
52380;SDS011;38310;52.796;6.942;2023-09-19T16:26:16;6.03;;;1.77;;
52380;SDS011;38310;52.796;6.942;2023-09-19T16:28:46;3.97;;;1.60;;